Time;durP1;ratioP1;P1;durP2;ratioP2;P2;SDS_P1;SDS_P2;PMS_P1;PMS_P2;Temp;Humidity;BMP_temperature;BMP_pressure;BME280_temperature;BME280_humidity;BME280_pressure;Samples;Min_cycle;Max_cycle;Signal;HPM_P1;HPM_P2
2021/12/03 00:00:54;;;;;;;9.83;8.83;;;;;;;-0.78;100.00;97232.53;5025023;28;20225;-73
2021/12/03 00:03:24;;;;;;;8.83;7.93;;;;;;;-0.76;100.00;97238.47;5031424;28;20321;-73
2021/12/03 00:05:54;;;;;;;11.03;9.83;;;;;;;-0.77;100.00;97242.00;5023349;28;20215;-73
2021/12/03 00:08:23;;;;;;;8.63;7.83;;;;;;;-0.73;100.00;97233.03;5037275;28;20210;-74
2021/12/03 00:10:56;;;;;;;10.87;8.63;;;;;;;-0.66;100.00;97242.03;5032218;28;20199;-73
2021/12/03 00:13:24;;;;;;;12.70;8.27;;;;;;;-0.61;100.00;97252.94;5003857;28;20321;-74
2021/12/03 00:15:53;;;;;;;11.60;9.00;;;;;;;-0.60;100.00;97259.00;5049261;28;20630;-74
2021/12/03 00:18:23;;;;;;;13.07;9.27;;;;;;;-0.46;100.00;97264.00;5004810;28;20472;-73
2021/12/03 00:20:52;;;;;;;14.00;10.10;;;;;;;-0.52;100.00;97276.66;5051821;28;20572;-73
2021/12/03 00:23:24;;;;;;;10.57;9.03;;;;;;;-0.53;100.00;97275.00;5030500;28;20581;-73
2021/12/03 00:25:52;;;;;;;9.70;8.70;;;;;;;-0.55;100.00;97288.13;5053159;28;20566;-73
2021/12/03 00:28:20;;;;;;;10.30;9.13;;;;;;;-0.51;100.00;97286.94;5054984;28;20209;-73
2021/12/03 00:30:49;;;;;;;13.87;9.90;;;;;;;-0.50;100.00;97293.00;5002453;28;20614;-73
2021/12/03 00:33:17;;;;;;;10.00;8.83;;;;;;;-0.43;100.00;97294.22;5055693;28;20598;-75
2021/12/03 00:35:47;;;;;;;9.07;8.10;;;;;;;-0.44;100.00;97297.75;5003104;28;20222;-73
2021/12/03 00:38:16;;;;;;;9.80;8.20;;;;;;;-0.45;100.00;97303.91;5053365;28;21026;-73
2021/12/03 00:40:45;;;;;;;10.70;9.43;;;;;;;-0.48;100.00;97309.34;5033975;28;20226;-73
2021/12/03 00:43:13;;;;;;;13.20;9.77;;;;;;;-0.49;100.00;97316.31;5050529;28;20430;-73
2021/12/03 00:45:43;;;;;;;9.47;8.27;;;;;;;-0.41;100.00;97320.13;5008163;28;20486;-73
2021/12/03 00:48:11;;;;;;;9.80;8.87;;;;;;;-0.47;100.00;97318.81;5047437;28;20427;-74
2021/12/03 00:50:39;;;;;;;11.27;9.67;;;;;;;-0.60;100.00;97334.47;5031987;28;20449;-74
2021/12/03 00:53:08;;;;;;;10.07;8.90;;;;;;;-0.81;100.00;97332.44;5031245;28;20206;-73
2021/12/03 00:55:37;;;;;;;9.03;8.13;;;;;;;-0.94;100.00;97337.72;5035670;28;20816;-74
2021/12/03 00:58:05;;;;;;;9.07;7.23;;;;;;;-1.02;100.00;97337.38;5022021;28;20795;-74
2021/12/03 01:00:34;;;;;;;10.20;7.93;;;;;;;-1.06;100.00;97348.94;5047899;28;20206;-74
2021/12/03 01:03:03;;;;;;;7.83;7.03;;;;;;;-1.06;100.00;97342.00;4996044;28;20567;-73
2021/12/03 01:05:31;;;;;;;7.80;6.77;;;;;;;-1.08;100.00;97343.88;5004598;28;20456;-74
2021/12/03 01:07:59;;;;;;;9.00;8.13;;;;;;;-1.04;100.00;97349.66;5048035;28;20452;-74
2021/12/03 01:10:30;;;;;;;7.43;6.70;;;;;;;-1.05;100.00;97354.06;5029993;28;20218;-74
2021/12/03 01:12:59;;;;;;;8.97;7.60;;;;;;;-1.07;100.00;97352.50;5014795;28;20643;-74
2021/12/03 01:15:29;;;;;;;10.90;8.30;;;;;;;-1.07;100.00;97360.28;5022555;28;21311;-74
2021/12/03 01:17:58;;;;;;;8.47;7.57;;;;;;;-1.06;100.00;97360.19;4996390;28;20456;-74
2021/12/03 01:20:26;;;;;;;9.07;8.20;;;;;;;-1.01;100.00;97359.84;5026443;28;20637;-74
2021/12/03 01:22:55;;;;;;;8.43;7.10;;;;;;;-1.02;100.00;97359.03;5048759;28;20223;-74
2021/12/03 01:25:23;;;;;;;8.63;7.17;;;;;;;-1.01;100.00;97367.66;5031676;28;20420;-74
2021/12/03 01:27:55;;;;;;;7.60;6.90;;;;;;;-1.00;100.00;97358.91;5048475;28;20505;-74
2021/12/03 01:30:24;;;;;;;7.83;7.03;;;;;;;-1.02;100.00;97371.19;5039599;28;20550;-74
2021/12/03 01:32:56;;;;;;;6.97;6.23;;;;;;;-0.98;100.00;97383.06;5004209;28;20448;-74
2021/12/03 01:35:24;;;;;;;7.77;6.30;;;;;;;-0.96;100.00;97385.56;5044221;28;20728;-74
2021/12/03 01:37:52;;;;;;;8.10;6.33;;;;;;;-0.92;100.00;97381.81;5023748;28;20487;-74
2021/12/03 01:40:22;;;;;;;7.87;7.10;;;;;;;-0.99;100.00;97381.38;5018753;28;20300;-74
2021/12/03 01:42:51;;;;;;;7.23;5.80;;;;;;;-1.05;100.00;97394.81;5029638;28;20230;-74
2021/12/03 01:45:23;;;;;;;6.63;5.60;;;;;;;-1.04;100.00;97386.09;5022648;28;20558;-74
2021/12/03 01:47:52;;;;;;;6.47;5.73;;;;;;;-1.03;100.00;97399.00;5002527;28;20207;-74
2021/12/03 01:50:24;;;;;;;6.17;5.53;;;;;;;-1.08;100.00;97400.25;5009339;28;20339;-73
2021/12/03 01:52:52;;;;;;;6.57;5.60;;;;;;;-1.10;100.00;97389.09;5022181;28;20214;-74
2021/12/03 01:55:21;;;;;;;5.23;4.73;;;;;;;-1.08;100.00;97390.69;5041640;28;20218;-74
2021/12/03 01:57:49;;;;;;;6.03;5.43;;;;;;;-1.11;100.00;97408.25;5000744;28;20453;-73
2021/12/03 02:00:22;;;;;;;5.50;5.00;;;;;;;-1.12;100.00;97417.00;5042654;28;21026;-73
2021/12/03 02:02:50;;;;;;;5.50;5.00;;;;;;;-1.19;100.00;97412.22;5028780;28;20978;-73
2021/12/03 02:05:18;;;;;;;5.47;5.03;;;;;;;-1.20;100.00;97413.16;4996738;28;20230;-73
2021/12/03 02:07:47;;;;;;;6.83;4.90;;;;;;;-1.13;100.00;97403.19;5026755;28;20214;-74
2021/12/03 02:10:16;;;;;;;6.30;5.57;;;;;;;-1.21;100.00;97411.50;5021153;28;20857;-73
2021/12/03 02:12:45;;;;;;;5.10;4.50;;;;;;;-1.12;100.00;97409.19;5035707;28;20859;-73
2021/12/03 02:15:13;;;;;;;6.37;5.43;;;;;;;-1.10;100.00;97412.53;5020397;28;20223;-74
2021/12/03 02:17:43;;;;;;;6.53;5.73;;;;;;;-1.08;100.00;97421.03;5051706;28;20221;-74
2021/12/03 02:20:14;;;;;;;7.37;6.57;;;;;;;-1.07;100.00;97418.34;4970546;28;20203;-74
2021/12/03 02:22:44;;;;;;;6.37;5.37;;;;;;;-1.08;100.00;97421.88;5045692;28;20649;-74
2021/12/03 02:25:15;;;;;;;6.83;6.20;;;;;;;-1.03;100.00;97425.00;5024142;28;20693;-74
2021/12/03 02:27:43;;;;;;;5.90;5.40;;;;;;;-1.03;100.00;97429.38;5021296;28;20230;-74
2021/12/03 02:30:11;;;;;;;8.37;6.90;;;;;;;-1.08;100.00;97419.28;5024469;28;20207;-74
2021/12/03 02:32:40;;;;;;;8.10;6.47;;;;;;;-1.05;100.00;97423.44;5027501;28;20625;-73
2021/12/03 02:35:09;;;;;;;7.37;6.40;;;;;;;-1.08;100.00;97424.50;4992493;28;20230;-73
2021/12/03 02:37:37;;;;;;;6.70;5.97;;;;;;;-1.08;100.00;97426.25;5038815;28;20210;-74
2021/12/03 02:40:08;;;;;;;7.63;6.83;;;;;;;-1.12;100.00;97432.59;5024795;28;20681;-74
2021/12/03 02:42:36;;;;;;;7.47;6.60;;;;;;;-1.09;100.00;97438.44;5054489;28;20629;-74
2021/12/03 02:45:05;;;;;;;7.30;6.60;;;;;;;-1.06;100.00;97426.97;5001920;28;20242;-74
2021/12/03 02:47:33;;;;;;;7.60;6.83;;;;;;;-1.04;100.00;97433.75;5050177;28;20551;-74
2021/12/03 02:50:06;;;;;;;7.87;7.07;;;;;;;-1.05;100.00;97433.84;5035586;28;20347;-74
2021/12/03 02:52:37;;;;;;;7.83;7.07;;;;;;;-1.00;100.00;97434.34;5044839;28;20215;-74
2021/12/03 02:55:08;;;;;;;7.10;6.40;;;;;;;-0.97;100.00;97443.72;5021169;28;20219;-74
2021/12/03 02:57:36;;;;;;;8.67;7.77;;;;;;;-0.97;100.00;97446.31;5024935;28;20357;-74
2021/12/03 03:00:07;;;;;;;8.67;7.30;;;;;;;-0.95;100.00;97445.25;5027476;28;20457;-74
2021/12/03 03:02:35;;;;;;;7.50;6.80;;;;;;;-0.97;100.00;97454.94;5025798;28;20550;-73
2021/12/03 03:05:04;;;;;;;8.47;7.33;;;;;;;-0.91;100.00;97449.34;5048722;28;20223;-73
2021/12/03 03:07:32;;;;;;;8.57;7.67;;;;;;;-0.94;100.00;97459.13;4996925;28;20460;-74
2021/12/03 03:10:00;;;;;;;9.17;8.13;;;;;;;-0.96;100.00;97458.41;5023368;28;20222;-74
2021/12/03 03:12:29;;;;;;;8.47;7.53;;;;;;;-0.98;100.00;97455.88;5044234;28;20432;-73
2021/12/03 03:15:00;;;;;;;10.17;7.53;;;;;;;-0.92;100.00;97457.25;5021471;28;20714;-74
2021/12/03 03:17:30;;;;;;;9.03;7.97;;;;;;;-0.93;100.00;97461.63;5048614;28;20237;-74
2021/12/03 03:19:59;;;;;;;9.03;8.13;;;;;;;-0.90;100.00;97465.78;5049136;28;20203;-74
2021/12/03 03:22:28;;;;;;;8.23;7.10;;;;;;;-0.90;100.00;97471.81;4978386;28;20731;-74
2021/12/03 03:24:59;;;;;;;8.60;7.70;;;;;;;-0.89;100.00;97462.25;5023910;28;20654;-74
2021/12/03 03:27:30;;;;;;;9.33;8.07;;;;;;;-0.97;100.00;97465.34;5031053;28;20214;-74
2021/12/03 03:29:59;;;;;;;9.07;8.17;;;;;;;-0.85;100.00;97470.69;5041182;28;20578;-74
2021/12/03 03:32:28;;;;;;;8.80;7.80;;;;;;;-0.84;100.00;97473.16;5006334;28;20229;-74
2021/12/03 03:34:56;;;;;;;8.60;7.70;;;;;;;-0.91;100.00;97479.72;5049965;28;20231;-74
2021/12/03 03:37:24;;;;;;;9.37;8.27;;;;;;;-0.80;100.00;97477.22;4994685;28;20221;-74
2021/12/03 03:39:52;;;;;;;8.97;8.03;;;;;;;-0.75;100.00;97474.31;5031177;28;20203;-74
2021/12/03 03:42:20;;;;;;;12.17;9.27;;;;;;;-0.78;100.00;97471.91;5026008;28;20230;-74
2021/12/03 03:44:50;;;;;;;9.63;7.83;;;;;;;-0.87;100.00;97481.16;5022129;28;20225;-74
2021/12/03 03:47:18;;;;;;;8.63;7.87;;;;;;;-0.93;100.00;97479.00;5020334;28;20214;-74
2021/12/03 03:49:46;;;;;;;9.00;7.93;;;;;;;-0.77;100.00;97489.19;5046657;28;20666;-74
2021/12/03 03:54:44;;;;;;;10.13;8.57;;;;;;;-0.61;100.00;97487.19;4995000;28;20597;-70
2021/12/03 03:57:12;;;;;;;10.30;8.73;;;;;;;-0.69;100.00;97499.91;4998441;28;20264;-70
2021/12/03 03:59:40;;;;;;;10.80;8.63;;;;;;;-0.80;100.00;97492.00;5021126;28;20212;-76
2021/12/03 04:02:09;;;;;;;11.80;9.40;;;;;;;-0.84;100.00;97486.16;5024903;28;20477;-74
2021/12/03 04:04:38;;;;;;;13.57;9.53;;;;;;;-0.82;100.00;97494.69;5014398;28;20917;-76
2021/12/03 04:07:06;;;;;;;10.13;8.83;;;;;;;-0.88;100.00;97495.13;5025569;28;20544;-74
2021/12/03 04:09:34;;;;;;;13.47;8.90;;;;;;;-0.95;100.00;97505.09;4996767;28;20461;-76
2021/12/03 04:12:02;;;;;;;10.97;9.17;;;;;;;-0.98;100.00;97507.09;5011742;28;20204;-76
2021/12/03 04:14:30;;;;;;;11.77;8.57;;;;;;;-1.02;100.00;97511.66;5006984;28;20912;-76
2021/12/03 04:16:58;;;;;;;9.53;8.63;;;;;;;-1.06;100.00;97512.81;5025582;28;20204;-73
2021/12/03 04:19:27;;;;;;;9.97;8.43;;;;;;;-1.08;100.00;97512.91;5020352;28;20205;-75
2021/12/03 04:21:55;;;;;;;11.83;9.97;;;;;;;-1.04;100.00;97521.34;5008854;28;20216;-76
2021/12/03 04:24:23;;;;;;;11.43;9.03;;;;;;;-1.07;100.00;97518.94;4993115;28;20225;-73
2021/12/03 04:26:51;;;;;;;10.20;8.87;;;;;;;-1.07;100.00;97522.38;5006558;28;20218;-76
2021/12/03 04:29:19;;;;;;;10.13;9.07;;;;;;;-1.03;100.00;97530.78;5009439;28;20224;-74
2021/12/03 04:31:47;;;;;;;11.63;9.83;;;;;;;-0.96;100.00;97524.25;5019753;28;20438;-76
2021/12/03 04:34:16;;;;;;;9.33;8.23;;;;;;;-0.98;100.00;97538.31;5010160;28;20208;-73
2021/12/03 04:36:45;;;;;;;9.70;8.80;;;;;;;-0.97;100.00;97540.78;5024768;28;20196;-76
2021/12/03 04:39:13;;;;;;;9.67;8.67;;;;;;;-1.04;100.00;97547.34;5010568;28;20226;-73
2021/12/03 04:41:41;;;;;;;10.43;8.90;;;;;;;-1.04;100.00;97542.13;5013963;28;20742;-76
2021/12/03 04:44:09;;;;;;;8.87;7.97;;;;;;;-1.10;100.00;97551.19;5012326;28;20224;-73
2021/12/03 04:46:37;;;;;;;10.33;9.03;;;;;;;-1.08;100.00;97549.34;5021617;28;20213;-76
2021/12/03 04:49:05;;;;;;;10.33;9.33;;;;;;;-1.14;100.00;97556.69;5008684;28;20976;-73
2021/12/03 04:51:33;;;;;;;10.93;9.17;;;;;;;-0.99;100.00;97567.84;5006958;28;20219;-77
2021/12/03 04:54:03;;;;;;;9.77;8.07;;;;;;;-1.10;100.00;97561.59;5020994;28;20732;-77
2021/12/03 04:56:31;;;;;;;12.53;9.87;;;;;;;-1.20;100.00;97568.31;4994502;28;20482;-74
2021/12/03 04:58:59;;;;;;;8.27;7.47;;;;;;;-1.20;100.00;97574.38;4982609;28;20430;-75
2021/12/03 05:01:28;;;;;;;9.87;8.30;;;;;;;-1.19;100.00;97570.84;5022118;28;20751;-75
2021/12/03 05:03:56;;;;;;;10.73;9.63;;;;;;;-1.18;100.00;97579.47;4995104;28;20332;-74
2021/12/03 05:06:31;;;;;;;11.27;8.83;;;;;;;-1.16;100.00;97580.19;5004670;28;20450;-76
2021/12/03 05:08:59;;;;;;;10.73;9.00;;;;;;;-1.19;100.00;97581.25;5007163;28;20228;-75
2021/12/03 05:11:28;;;;;;;9.30;8.00;;;;;;;-1.19;100.00;97578.63;4995741;28;20743;-77
2021/12/03 05:13:56;;;;;;;10.00;8.27;;;;;;;-1.20;100.00;97581.31;5005769;28;20435;-75
2021/12/03 05:16:24;;;;;;;9.67;8.23;;;;;;;-1.20;100.00;97582.16;5006980;28;20523;-78
2021/12/03 05:18:52;;;;;;;12.63;8.90;;;;;;;-1.19;100.00;97594.25;5016462;28;20263;-76
2021/12/03 05:21:20;;;;;;;9.90;8.47;;;;;;;-1.19;100.00;97594.25;5003860;28;20209;-70
2021/12/03 05:23:48;;;;;;;9.70;8.40;;;;;;;-1.19;100.00;97609.84;5021267;28;20483;-70
2021/12/03 05:26:16;;;;;;;8.97;8.07;;;;;;;-1.14;100.00;97621.72;4990045;28;21767;-71
2021/12/03 05:28:46;;;;;;;9.23;8.33;;;;;;;-1.13;100.00;97615.56;5003838;28;20763;-74
2021/12/03 05:31:14;;;;;;;10.60;8.77;;;;;;;-1.13;100.00;97624.22;5007354;28;20208;-77
2021/12/03 05:33:42;;;;;;;12.17;8.83;;;;;;;-1.14;100.00;97629.50;5006445;28;20211;-74
2021/12/03 05:36:10;;;;;;;9.50;8.60;;;;;;;-1.08;100.00;97635.16;5006131;28;20234;-76
2021/12/03 05:38:38;;;;;;;9.37;8.37;;;;;;;-1.21;100.00;97634.25;5025977;28;21427;-77
2021/12/03 05:41:11;;;;;;;9.73;8.83;;;;;;;-1.19;100.00;97638.44;5012238;28;20208;-76
2021/12/03 05:43:39;;;;;;;12.70;8.70;;;;;;;-1.12;100.00;97638.91;4978755;28;20502;-75
2021/12/03 05:46:08;;;;;;;10.03;8.90;;;;;;;-1.12;100.00;97649.28;4985450;28;20211;-75
2021/12/03 05:48:39;;;;;;;10.37;6.60;;;;;;;-1.10;100.00;97654.38;5014862;28;20517;-76
2021/12/03 05:51:09;;;;;;;8.33;6.97;;;;;;;-1.12;100.00;97651.06;4990661;28;20208;-75
2021/12/03 05:53:38;;;;;;;8.67;7.33;;;;;;;-1.18;100.00;97649.66;4991480;28;20878;-77
2021/12/03 05:56:06;;;;;;;7.50;6.80;;;;;;;-1.12;100.00;97658.84;5019629;28;20212;-77
2021/12/03 05:58:34;;;;;;;7.63;6.50;;;;;;;-1.18;100.00;97660.06;4982811;28;20857;-77
2021/12/03 06:01:02;;;;;;;10.13;7.70;;;;;;;-1.21;100.00;97665.47;5016852;28;20457;-75
2021/12/03 06:03:31;;;;;;;7.87;7.07;;;;;;;-1.23;100.00;97665.59;5001295;28;20211;-75
2021/12/03 06:05:59;;;;;;;6.67;6.13;;;;;;;-1.25;100.00;97670.03;4993909;28;20442;-77
2021/12/03 06:08:27;;;;;;;7.13;6.40;;;;;;;-1.21;100.00;97673.28;5010770;28;20719;-74
2021/12/03 06:10:55;;;;;;;7.17;6.47;;;;;;;-1.13;100.00;97678.00;5020435;28;20201;-76
2021/12/03 06:13:23;;;;;;;11.50;7.47;;;;;;;-1.18;100.00;97676.53;4990164;28;20462;-75
2021/12/03 06:15:51;;;;;;;7.13;6.37;;;;;;;-1.15;100.00;97680.69;5015919;28;20525;-75
2021/12/03 06:18:19;;;;;;;8.03;6.90;;;;;;;-1.29;100.00;97676.38;5009506;28;20318;-75
2021/12/03 06:20:49;;;;;;;7.40;6.30;;;;;;;-1.37;100.00;97683.81;4999253;28;20447;-74
2021/12/03 06:23:17;;;;;;;6.50;5.90;;;;;;;-1.44;100.00;97690.31;5013956;28;20802;-75
2021/12/03 06:25:46;;;;;;;7.93;6.23;;;;;;;-1.53;100.00;97679.56;5019733;28;20498;-74
2021/12/03 06:28:14;;;;;;;8.80;6.90;;;;;;;-1.51;100.00;97688.13;4979222;28;20466;-74
2021/12/03 06:30:42;;;;;;;7.10;6.47;;;;;;;-1.52;100.00;97685.59;5021145;28;20450;-73
2021/12/03 06:33:10;;;;;;;8.60;7.70;;;;;;;-1.47;100.00;97691.38;4989986;28;21725;-75
2021/12/03 06:35:38;;;;;;;12.07;10.33;;;;;;;-1.52;100.00;97691.63;5014041;28;20444;-74
2021/12/03 06:38:07;;;;;;;11.37;9.30;;;;;;;-1.42;100.00;97691.06;5007765;28;20767;-75
2021/12/03 06:40:35;;;;;;;7.70;7.00;;;;;;;-1.43;100.00;97703.25;5006424;28;20496;-74
2021/12/03 06:43:07;;;;;;;9.07;8.27;;;;;;;-1.53;100.00;97697.78;5025004;28;20438;-74
2021/12/03 06:45:35;;;;;;;7.73;7.03;;;;;;;-1.54;100.00;97696.09;4984665;28;20497;-74
2021/12/03 06:48:04;;;;;;;12.93;11.57;;;;;;;-1.50;100.00;97700.19;5004884;28;20846;-76
2021/12/03 06:50:32;;;;;;;8.27;7.20;;;;;;;-1.72;100.00;97697.22;5029713;28;20207;-74
2021/12/03 06:53:03;;;;;;;10.07;8.83;;;;;;;-1.84;100.00;97704.84;5012966;28;20451;-75
2021/12/03 06:55:38;;;;;;;6.67;5.40;;;;;;;-1.88;100.00;97713.75;5000496;28;21083;-75
2021/12/03 06:58:06;;;;;;;31.50;22.00;;;;;;;-1.92;100.00;97702.69;5009876;28;20461;-76
2021/12/03 07:00:34;;;;;;;8.37;7.57;;;;;;;-1.97;100.00;97719.50;4986159;28;20705;-75
2021/12/03 07:03:02;;;;;;;5.83;5.30;;;;;;;-1.98;100.00;97723.03;5008432;28;20868;-74
2021/12/03 07:05:30;;;;;;;6.40;5.70;;;;;;;-1.99;100.00;97718.78;5028677;28;20486;-75
2021/12/03 07:07:58;;;;;;;5.87;5.30;;;;;;;-2.17;100.00;97721.50;5026523;28;20474;-75
2021/12/03 07:10:27;;;;;;;6.73;6.13;;;;;;;-2.22;100.00;97726.16;5003986;28;20212;-76
2021/12/03 07:12:56;;;;;;;6.00;5.37;;;;;;;-2.36;100.00;97737.34;5024084;28;20208;-75
2021/12/03 07:15:24;;;;;;;5.97;5.20;;;;;;;-2.40;100.00;97734.09;4981898;28;20486;-75
2021/12/03 07:17:52;;;;;;;6.83;6.23;;;;;;;-2.38;100.00;97741.78;4996767;28;20579;-77
2021/12/03 07:20:22;;;;;;;6.80;6.10;;;;;;;-2.23;100.00;97751.28;5022428;28;20777;-75
2021/12/03 07:22:50;;;;;;;6.57;5.83;;;;;;;-2.09;100.00;97755.66;5006184;28;20211;-76
2021/12/03 07:25:19;;;;;;;7.13;6.43;;;;;;;-2.05;100.00;97764.09;5024706;28;20505;-75
2021/12/03 07:27:47;;;;;;;7.03;6.07;;;;;;;-1.97;100.00;97759.28;5002232;28;20478;-75
2021/12/03 07:30:18;;;;;;;6.83;6.00;;;;;;;-1.92;100.00;97756.44;5003849;28;20477;-75
2021/12/03 07:32:46;;;;;;;7.13;6.43;;;;;;;-1.93;100.00;97763.38;5002553;28;20453;-75
2021/12/03 07:35:14;;;;;;;5.60;5.10;;;;;;;-1.95;100.00;97764.41;5015334;28;20446;-75
2021/12/03 07:37:43;;;;;;;6.00;5.50;;;;;;;-1.88;100.00;97770.91;5023622;28;20485;-74
2021/12/03 07:40:13;;;;;;;6.10;5.50;;;;;;;-1.80;100.00;97781.66;5013026;28;20291;-75
2021/12/03 07:42:42;;;;;;;6.97;6.23;;;;;;;-1.74;100.00;97790.88;5005807;28;20314;-75
2021/12/03 07:45:13;;;;;;;6.23;5.73;;;;;;;-1.73;100.00;97791.69;5009074;28;20228;-75
2021/12/03 07:47:43;;;;;;;7.77;6.47;;;;;;;-1.65;100.00;97787.72;4997915;28;20236;-74
2021/12/03 07:50:13;;;;;;;7.10;6.43;;;;;;;-1.65;100.00;97798.09;5011454;28;20200;-76
2021/12/03 07:52:41;;;;;;;9.73;8.87;;;;;;;-1.61;100.00;97796.16;5012018;28;20585;-76
2021/12/03 07:55:10;;;;;;;7.00;6.40;;;;;;;-1.61;100.00;97803.97;5026779;28;20200;-75
2021/12/03 07:57:38;;;;;;;7.70;6.83;;;;;;;-1.61;100.00;97799.59;5004429;28;20233;-75
2021/12/03 08:00:09;;;;;;;6.37;5.77;;;;;;;-1.56;100.00;97806.25;5024164;28;20462;-76
2021/12/03 08:02:37;;;;;;;6.90;6.23;;;;;;;-1.50;100.00;97803.31;4989936;28;20212;-75
2021/12/03 08:05:07;;;;;;;6.13;5.60;;;;;;;-1.36;100.00;97807.66;5003010;28;20233;-75
2021/12/03 08:07:36;;;;;;;6.83;6.13;;;;;;;-1.36;100.00;97807.66;5022552;28;20235;-74
2021/12/03 08:10:04;;;;;;;6.37;5.77;;;;;;;-1.37;100.00;97819.00;5008377;28;20207;-76
2021/12/03 08:12:32;;;;;;;6.73;5.70;;;;;;;-1.44;100.00;97809.91;5027609;28;20463;-77
2021/12/03 08:15:00;;;;;;;7.70;6.93;;;;;;;-1.48;100.00;97817.06;4996802;28;20347;-76
2021/12/03 08:17:28;;;;;;;8.20;7.33;;;;;;;-1.42;100.00;97819.28;4994592;28;20235;-77
2021/12/03 08:19:56;;;;;;;7.93;6.77;;;;;;;-1.32;100.00;97822.16;5009104;28;20212;-77
2021/12/03 08:22:25;;;;;;;8.30;7.50;;;;;;;-1.27;100.00;97820.13;5012227;28;20211;-76
2021/12/03 08:24:54;;;;;;;9.30;8.00;;;;;;;-1.29;100.00;97818.53;5021051;28;20470;-75
2021/12/03 08:27:22;;;;;;;8.13;7.43;;;;;;;-1.19;100.00;97815.28;5012409;28;20481;-74
2021/12/03 08:29:50;;;;;;;9.17;8.20;;;;;;;-1.23;100.00;97813.81;5006795;28;20472;-75
2021/12/03 08:32:19;;;;;;;8.07;6.57;;;;;;;-1.28;100.00;97822.81;4998635;28;20219;-77
2021/12/03 08:34:47;;;;;;;7.80;7.13;;;;;;;-1.24;100.00;97825.13;5010070;28;20536;-76
2021/12/03 08:37:15;;;;;;;7.87;7.13;;;;;;;-1.18;100.00;97822.16;5005701;28;20203;-78
2021/12/03 08:39:44;;;;;;;7.27;6.67;;;;;;;-1.08;100.00;97821.56;5007949;28;20215;-75
2021/12/03 08:42:12;;;;;;;6.77;6.17;;;;;;;-0.96;100.00;97822.59;5015410;28;20212;-75
2021/12/03 08:44:41;;;;;;;7.80;6.87;;;;;;;-0.89;100.00;97816.91;5000845;28;20581;-75
2021/12/03 08:47:09;;;;;;;6.80;6.20;;;;;;;-0.90;100.00;97820.44;4984551;28;21618;-77
2021/12/03 08:49:39;;;;;;;7.33;6.63;;;;;;;-0.93;100.00;97819.78;5024819;28;20210;-75
2021/12/03 08:52:48;;;;;;;6.47;5.87;;;;;;;-0.95;100.00;97819.06;5009504;28;20446;-78
2021/12/03 08:55:18;;;;;;;7.97;7.17;;;;;;;-0.62;100.00;97825.66;5028961;28;20449;-76
2021/12/03 08:57:50;;;;;;;8.60;7.70;;;;;;;-0.54;100.00;97825.19;5013655;28;20611;-76
2021/12/03 09:00:20;;;;;;;8.63;7.77;;;;;;;-0.51;100.00;97825.00;5023904;28;20530;-76
2021/12/03 09:02:49;;;;;;;9.13;7.10;;;;;;;-0.36;100.00;97828.38;4981088;28;20212;-76
2021/12/03 09:05:17;;;;;;;7.73;6.93;;;;;;;-0.32;100.00;97829.84;5019519;28;20228;-78
2021/12/03 09:07:46;;;;;;;8.17;6.43;;;;;;;-0.39;100.00;97831.16;5013112;28;20270;-76
2021/12/03 09:10:21;;;;;;;7.57;6.87;;;;;;;-0.44;100.00;97827.06;5020679;28;20219;-78
2021/12/03 09:12:49;;;;;;;7.80;6.90;;;;;;;-0.41;100.00;97833.03;5019969;28;20340;-76
2021/12/03 09:15:22;;;;;;;7.83;7.03;;;;;;;-0.42;100.00;97833.97;5008695;28;20203;-78
2021/12/03 09:18:02;;;;;;;7.47;6.83;;;;;;;-0.37;100.00;97844.94;4988863;28;21560;-74
2021/12/03 09:20:42;;;;;;;9.53;8.37;;;;;;;-0.40;100.00;97835.53;5006447;28;20569;-78
2021/12/03 09:23:14;;;;;;;8.60;7.70;;;;;;;-0.31;100.00;97841.94;5023647;28;20345;-78
2021/12/03 09:25:48;;;;;;;8.53;7.73;;;;;;;-0.22;100.00;97836.13;4998167;28;20406;-75
2021/12/03 09:28:20;;;;;;;8.37;7.57;;;;;;;-0.24;100.00;97843.19;5023875;28;20219;-74
2021/12/03 09:30:48;;;;;;;8.40;7.57;;;;;;;0.08;100.00;97842.88;5004649;28;20219;-73
2021/12/03 09:33:18;;;;;;;8.00;7.20;;;;;;;0.19;100.00;97847.38;5011114;28;20204;-75
2021/12/03 09:35:50;;;;;;;8.10;7.37;;;;;;;0.22;100.00;97844.56;4983479;28;20219;-74
2021/12/03 09:38:19;;;;;;;8.97;8.17;;;;;;;0.29;100.00;97837.13;5007766;28;20223;-76
2021/12/03 09:40:48;;;;;;;9.43;8.43;;;;;;;0.21;100.00;97829.00;5008498;28;20292;-74
2021/12/03 09:43:16;;;;;;;9.27;7.27;;;;;;;0.27;100.00;97836.41;5026016;28;20571;-74
2021/12/03 09:45:53;;;;;;;8.20;7.50;;;;;;;0.08;100.00;97829.84;5007566;28;20234;-74
2021/12/03 09:48:31;;;;;;;7.50;6.90;;;;;;;0.25;100.00;97822.66;5026792;28;20230;-75
2021/12/03 09:51:00;;;;;;;7.83;7.13;;;;;;;0.38;100.00;97826.13;4990784;28;20580;-75
2021/12/03 09:53:43;;;;;;;7.87;7.07;;;;;;;0.70;100.00;97825.66;5022011;28;20207;-76
2021/12/03 09:56:13;;;;;;;7.97;7.27;;;;;;;0.90;100.00;97822.63;4993532;28;21030;-76
2021/12/03 09:59:10;;;;;;;7.53;6.83;;;;;;;1.09;100.00;97823.00;5021698;28;20223;-73
2021/12/03 10:01:38;;;;;;;7.63;7.00;;;;;;;0.84;100.00;97822.09;5007899;28;20212;-75
2021/12/03 10:04:26;;;;;;;7.20;6.60;;;;;;;1.00;100.00;97816.66;5016212;28;20215;-73
2021/12/03 10:12:47;;;;;;;6.37;5.83;;;;;;;0.39;100.00;97819.97;5004962;28;20207;-75
2021/12/03 10:15:18;;;;;;;5.87;5.27;;;;;;;0.21;100.00;97816.81;5006984;28;20208;-73
2021/12/03 10:17:51;;;;;;;6.40;5.90;;;;;;;0.07;100.00;97811.69;5008355;28;20238;-74
2021/12/03 10:20:29;;;;;;;6.97;6.37;;;;;;;0.03;100.00;97805.84;5007896;28;20236;-74
2021/12/03 10:23:40;;;;;;;5.87;5.37;;;;;;;0.10;100.00;97799.28;4991844;28;20433;-74
2021/12/03 10:29:16;;;;;;;6.00;5.53;;;;;;;-0.17;100.00;97796.75;5024156;28;20828;-74
2021/12/03 10:34:54;;;;;;;6.13;5.53;;;;;;;-0.33;100.00;97792.53;5026063;28;21022;-75
2021/12/03 10:40:30;;;;;;;6.10;5.60;;;;;;;0.04;100.00;97793.66;5013729;28;20450;-75
2021/12/03 10:43:22;;;;;;;7.77;6.40;;;;;;;0.13;100.00;97795.63;5011477;28;20450;-75
2021/12/03 10:46:17;;;;;;;5.70;5.20;;;;;;;0.13;100.00;97796.47;5007413;28;20220;-75
2021/12/03 10:48:53;;;;;;;6.40;5.87;;;;;;;0.31;100.00;97796.16;5013645;28;20678;-75
2021/12/03 10:51:37;;;;;;;5.43;4.93;;;;;;;0.39;100.00;97799.09;5009133;28;20400;-77
2021/12/03 10:54:11;;;;;;;6.43;5.63;;;;;;;0.38;100.00;97805.25;4999136;28;20363;-75
2021/12/03 10:56:55;;;;;;;6.10;5.60;;;;;;;0.21;100.00;97806.41;5012194;28;20219;-75
2021/12/03 11:31:09;;;;;;;4.80;4.37;;;;;;;0.11;100.00;97794.91;5026964;28;20443;-77
2021/12/03 11:36:56;;;;;;;4.20;3.90;;;;;;;-0.12;100.00;97786.88;5028565;28;20200;-75
2021/12/03 11:51:41;;;;;;;3.90;3.57;;;;;;;0.30;100.00;97767.63;5008870;28;20207;-76
2021/12/03 13:12:47;;;;;;;9.87;7.20;;;;;;;1.05;100.00;97709.34;4934330;28;20214;-74
2021/12/03 14:09:28;;;;;;;6.70;3.50;;;;;;;1.23;100.00;97667.16;5022681;28;20233;-74
2021/12/03 14:38:16;;;;;;;4.20;3.90;;;;;;;0.32;100.00;97685.75;4986387;28;20966;-76
2021/12/03 14:43:47;;;;;;;3.83;3.53;;;;;;;0.09;100.00;97671.69;5023424;28;20203;-77
2021/12/03 14:49:22;;;;;;;4.87;4.47;;;;;;;-0.18;100.00;97659.66;4976496;28;20231;-76
2021/12/03 14:52:12;;;;;;;4.57;3.97;;;;;;;-0.34;100.00;97652.84;5017341;28;20800;-77
2021/12/03 14:54:51;;;;;;;3.93;3.53;;;;;;;-0.53;100.00;97660.25;5011814;28;20227;-76
2021/12/03 14:57:30;;;;;;;6.83;6.23;;;;;;;-0.63;100.00;97670.44;5019879;28;20203;-78
2021/12/03 15:03:22;;;;;;;8.37;6.40;;;;;;;-0.82;100.00;97669.03;4976145;28;20226;-77
2021/12/03 15:08:38;;;;;;;4.47;4.07;;;;;;;-0.87;100.00;97668.50;5003176;28;20708;-77
2021/12/03 15:25:34;;;;;;;4.90;4.50;;;;;;;-1.15;100.00;97654.66;5011748;28;20798;-78
2021/12/03 15:28:42;;;;;;;6.10;5.60;;;;;;;-1.11;100.00;97647.50;5009622;28;20502;-77
2021/12/03 15:31:46;;;;;;;8.67;7.80;;;;;;;-1.20;100.00;97639.38;4998216;28;20251;-77
2021/12/03 15:34:35;;;;;;;8.93;8.00;;;;;;;-1.37;100.00;97637.84;5002460;28;21382;-77
2021/12/03 15:37:23;;;;;;;9.70;8.03;;;;;;;-1.35;100.00;97640.34;4995481;28;21145;-77
2021/12/03 16:05:09;;;;;;;6.37;5.73;;;;;;;-1.83;100.00;97627.75;4929993;28;20214;-77
2021/12/03 16:10:45;;;;;;;9.43;7.33;;;;;;;-1.92;100.00;97636.94;4945705;28;20436;-77
2021/12/03 16:13:25;;;;;;;10.90;9.43;;;;;;;-1.93;100.00;97643.06;5002784;28;20233;-77
2021/12/03 16:43:48;;;;;;;10.13;9.13;;;;;;;-2.18;100.00;97613.41;5019620;28;20450;-78
2021/12/03 16:46:28;;;;;;;8.27;7.47;;;;;;;-2.21;100.00;97611.00;5008280;28;20214;-78